Meteoliendo - El tiempo en Liendo - Informes METAR de Aeropuertos cercanos

Informes METAR de Aeropuertos cercanos

 

LEXJ - Santander
Actualización: 25/05/2017 21:30
Parcialmente nuboso
Parcialmente nuboso
 Viento del OSO
Viento: OSO 20 km/h
Temperatura: 23°C
Rocío: 14°C
Humedad: 57%
Barómetro: 1013 hPa
Clouds: Parcialmente nuboso
Visibility: 10 km
Cloud details: Few Clouds 1067 m
Parcialmente nuboso 1829 m
2017/05/25 19:30 LEXJ 251930Z 24011KT 210V270 9999 FEW035TCU SCT060 23/14 Q1013
LEAS - Asturias/Aviles
Actualización: 25/05/2017 21:30
Parcialmente nuboso
Parcialmente nuboso
 Viento del calm
Viento: Calma
Temperatura: 21°C
Rocío: 18°C
Humedad: 83%
Barómetro: 1012 hPa
Clouds: Parcialmente nuboso
Visibility: 10 km
Cloud details: Few Clouds 1158 m
Parcialmente nuboso 2134 m
2017/05/25 19:30 LEAS 251930Z 00000KT 9999 FEW038TCU SCT070 21/18 Q1012 NOSIG
LEBB - Bilbao
Actualización: 25/05/2017 21:30
Despejado
Despejado
 Viento del NO
Viento: NO 6 km/h
Temperatura: 23°C
Rocío: 17°C
Humedad: 69%
Barómetro: 1013 hPa
Resumen: Despejado
Visibility: greater than 10 km
2017/05/25 19:30 LEBB 251930Z 31003KT 260V350 CAVOK 23/17 Q1013 NOSIG
 
LEBG - Burgos/Villafría
Actualización: 25/05/2017 21:30
Heavy thunderstorm, LLuvia, Nearby thunderstorm, Thunderstorm
Heavy thunderstorm, LLuvia, Nearby thunderstorm, Thunderstorm
 Viento del OSO
Viento: OSO 24 km/h
Temperatura: 17°C
Rocío: 13°C
Humedad: 77%
Barómetro: 1018 hPa
Resumen: Heavy thunderstorm, LLuvia, Nearby thunderstorm
Clouds: Thunderstorm
Visibility: 10 km
Cloud details: Few Clouds 792 m
Parcialmente nuboso 1097 m
2017/05/25 19:30 LEBG 251930Z AUTO 25013KT 230V290 9999 +TSRA VCTS FEW026 SCT036 ///CB 17/13 Q1018
LELO - Logroño
Actualización: 25/05/2017 21:00
Few Clouds
Few Clouds
 Viento del varies
Viento: varies 4 km/h
Temperatura: 28°C
Rocío: 12°C
Humedad: 37%
Barómetro: 1011 hPa
Clouds: Few Clouds
Visibility: 10 km
Cloud details: Few Clouds 1219 m
2017/05/25 19:00 LELO 251900Z VRB02KT 9999 FEW040 28/12 Q1011
LEPP - Pamplona
Actualización: 25/05/2017 21:30
Despejado
Despejado
 Viento del calm
Viento: Calma
Temperatura: 26°C
Rocío: 14°C
Humedad: 48%
Barómetro: 1013 hPa
Resumen: Despejado
Visibility: greater than 10 km
2017/05/25 19:30 LEPP 251930Z 00000KT CAVOK 26/14 Q1013
 
LESO - San Sebastián
Actualización: 25/05/2017 21:30
Despejado
Despejado
 Viento del calm
Viento: Calma
Temperatura: 25°C
Rocío: 18°C
Humedad: 65%
Barómetro: 1010 hPa
Resumen: Despejado
Visibility: greater than 10 km
2017/05/25 19:30 LESO 251930Z 00000KT CAVOK 25/18 Q1010
LEST - Santiago de Compostela
Actualización: 25/05/2017 21:30
Few Clouds
Few Clouds
 Viento del varies
Viento: varies 2 km/h
Temperatura: 22°C
Rocío: 18°C
Humedad: 78%
Barómetro: 1013 hPa
Clouds: Few Clouds
Visibility: 10 km
Cloud details: Few Clouds 1219 m
2017/05/25 19:30 LEST 251930Z VRB01KT 9999 FEW040 22/18 Q1013 NOSIG
LEVT - Vitoria
Actualización: 25/05/2017 21:30
Few Clouds
Few Clouds
 Viento del N
Viento: N 11 km/h
Temperatura: 26°C
Rocío: 14°C
Humedad: 48%
Barómetro: 1013 hPa
Clouds: Few Clouds
Visibility: 10 km
Cloud details: Few Clouds 1524 m
2017/05/25 19:30 LEVT 251930Z 01006KT 9999 FEW050 26/14 Q1013